Time;durP1;ratioP1;P1;durP2;ratioP2;P2;SDS_P1;SDS_P2;PMS_P1;PMS_P2;Temp;Humidity;BMP_temperature;BMP_pressure;BME280_temperature;BME280_humidity;BME280_pressure;Samples;Min_cycle;Max_cycle;Signal;HPM_P1;HPM_P2
2022/04/15 00:02:19;;;;;;;82.65;43.35;;;;;;;4.38;66.05;99879.43;1752680;80;21611;-71
2022/04/15 00:04:46;;;;;;;87.95;40.70;;;;;;;4.37;66.05;99878.60;1772563;80;21776;-71
2022/04/15 00:07:17;;;;;;;89.87;39.18;;;;;;;4.36;66.09;99876.98;1707761;83;21085;-70
2022/04/15 00:09:46;;;;;;;100.47;42.05;;;;;;;4.34;66.15;99872.86;1776386;79;21012;-72
2022/04/15 00:12:27;;;;;;;91.32;43.08;;;;;;;4.32;66.04;99884.05;1778461;79;21600;-70
2022/04/15 00:14:44;;;;;;;85.45;41.53;;;;;;;4.30;65.90;99878.59;1781366;79;21073;-71
2022/04/15 00:17:12;;;;;;;98.17;46.18;;;;;;;4.27;66.15;99878.58;1767450;80;21036;-71
2022/04/15 00:19:39;;;;;;;88.52;42.15;;;;;;;4.23;66.70;99876.92;1775941;80;21573;-70
2022/04/15 00:22:09;;;;;;;85.47;40.28;;;;;;;4.22;66.91;99873.10;1778109;79;20966;-70
2022/04/15 00:24:43;;;;;;;84.85;39.25;;;;;;;4.20;67.01;99873.91;1766629;79;21063;-71
2022/04/15 00:27:12;;;;;;;90.40;41.00;;;;;;;4.18;67.07;99873.38;1751641;80;21041;-71
2022/04/15 00:29:41;;;;;;;78.90;37.00;;;;;;;4.16;67.10;99864.11;1777604;80;21018;-71
2022/04/15 00:32:10;;;;;;;85.80;39.80;;;;;;;4.16;67.00;99866.00;1783427;80;21504;-71
2022/04/15 00:34:40;;;;;;;87.82;40.67;;;;;;;4.13;66.98;99864.08;1772495;79;21011;-71
2022/04/15 00:37:06;;;;;;;86.12;40.80;;;;;;;4.16;67.22;99868.73;1778815;79;21033;-71
2022/04/15 00:39:35;;;;;;;97.82;41.73;;;;;;;4.14;67.53;99867.64;1712919;82;21049;-70
2022/04/15 00:42:08;;;;;;;90.57;41.55;;;;;;;4.11;67.73;99866.25;1780358;80;21738;-71
2022/04/15 00:44:35;;;;;;;91.70;44.20;;;;;;;4.10;67.71;99862.43;1771382;79;20998;-73
2022/04/15 00:47:32;;;;;;;88.90;44.40;;;;;;;4.09;67.53;99856.17;1777216;79;21510;-72
2022/04/15 00:50:02;;;;;;;91.00;42.60;;;;;;;4.09;67.37;99850.72;1773831;80;20998;-69
2022/04/15 00:52:40;;;;;;;92.40;43.73;;;;;;;4.07;67.30;99855.63;1750717;80;21016;-70
2022/04/15 00:55:07;;;;;;;88.60;43.58;;;;;;;4.05;67.52;99852.34;1767975;81;21114;-71
2022/04/15 00:57:36;;;;;;;79.25;39.80;;;;;;;4.04;67.25;99856.16;1774352;80;21033;-70
2022/04/15 01:00:08;;;;;;;76.92;38.48;;;;;;;4.01;67.13;99851.22;1702742;82;21084;-70
2022/04/15 01:02:36;;;;;;;83.45;40.08;;;;;;;3.99;67.28;99855.58;1692878;83;21060;-70
2022/04/15 01:05:06;;;;;;;80.83;40.23;;;;;;;3.95;67.32;99854.48;1719618;81;21021;-71
2022/04/15 01:07:40;;;;;;;76.00;37.33;;;;;;;3.91;67.27;99853.38;1716665;83;21199;-70
2022/04/15 01:10:12;;;;;;;82.33;40.00;;;;;;;3.89;67.33;99851.45;1715836;83;21065;-70
2022/04/15 01:12:54;;;;;;;80.72;39.80;;;;;;;3.88;67.27;99856.10;1713663;83;21017;-69
2022/04/15 01:15:24;;;;;;;84.07;38.42;;;;;;;3.89;67.41;99854.17;1716247;83;21123;-70
2022/04/15 01:17:52;;;;;;;78.20;36.93;;;;;;;3.89;67.48;99856.37;1639879;85;21056;-70
2022/04/15 01:20:19;;;;;;;78.85;36.50;;;;;;;3.89;67.43;99856.90;1660215;85;21250;-70
2022/04/15 01:23:00;;;;;;;82.57;38.53;;;;;;;3.88;67.50;99850.65;1655305;86;21565;-71
2022/04/15 01:25:30;;;;;;;82.90;37.53;;;;;;;3.88;67.56;99847.09;1646210;85;21087;-70
2022/04/15 01:27:57;;;;;;;83.40;38.85;;;;;;;3.88;67.89;99848.45;1669116;85;21619;-70
2022/04/15 01:30:24;;;;;;;82.42;40.43;;;;;;;3.86;68.07;99843.27;1671147;85;21556;-71
2022/04/15 01:32:51;;;;;;;85.60;39.58;;;;;;;3.85;67.95;99840.28;1673882;84;21124;-71
2022/04/15 01:35:24;;;;;;;90.28;40.55;;;;;;;3.82;67.83;99842.16;1670127;84;21143;-70
2022/04/15 01:38:02;;;;;;;83.82;39.60;;;;;;;3.82;67.86;99844.88;1671195;85;21084;-70
2022/04/15 01:41:05;;;;;;;;;;;;;;;3.80;68.25;99845.72;1654807;86;21037;-70
2022/04/15 01:43:34;;;;;;;80.53;38.42;;;;;;;3.77;68.72;99848.41;1671825;84;20240;-70
2022/04/15 01:46:01;;;;;;;86.67;40.88;;;;;;;3.75;68.83;99848.42;1669063;85;21284;-70
2022/04/15 01:48:28;;;;;;;85.45;41.73;;;;;;;3.71;68.84;99841.31;1678402;83;21313;-69
2022/04/15 01:50:58;;;;;;;81.20;40.05;;;;;;;3.69;68.65;99848.09;1668175;84;21147;-70
2022/04/15 01:53:25;;;;;;;88.95;39.88;;;;;;;3.65;68.66;99848.63;1671524;85;21037;-70
2022/04/15 01:55:55;;;;;;;80.32;38.17;;;;;;;3.64;69.05;99847.54;1671042;85;21044;-71
2022/04/15 01:58:25;;;;;;;76.87;35.80;;;;;;;3.64;69.47;99841.55;1669329;85;21555;-70
2022/04/15 02:00:51;;;;;;;75.67;35.45;;;;;;;3.62;69.37;99835.55;1670103;83;21107;-71
2022/04/15 02:03:19;;;;;;;82.05;34.23;;;;;;;3.62;69.29;99831.98;1672140;85;21080;-70
2022/04/15 02:05:49;;;;;;;78.05;38.28;;;;;;;3.62;69.31;99830.63;1690373;83;21063;-69
2022/04/15 02:08:17;;;;;;;81.10;37.38;;;;;;;3.62;69.22;99834.72;1672908;85;21111;-70
2022/04/15 02:10:44;;;;;;;70.85;36.65;;;;;;;3.61;69.19;99838.00;1655779;86;21560;-71
2022/04/15 02:13:14;;;;;;;81.28;39.67;;;;;;;3.60;69.09;99834.98;1715369;82;21564;-70
2022/04/15 02:15:43;;;;;;;82.17;37.78;;;;;;;3.60;69.00;99839.07;1713967;82;21077;-70
2022/04/15 02:18:14;;;;;;;83.72;38.13;;;;;;;3.59;68.90;99833.36;1714685;81;21064;-72
2022/04/15 02:20:43;;;;;;;81.25;39.30;;;;;;;3.59;68.88;99829.27;1715077;83;21048;-73
2022/04/15 02:23:09;;;;;;;88.27;41.45;;;;;;;3.58;68.75;99829.00;1715419;83;21134;-71
2022/04/15 02:25:36;;;;;;;88.62;42.08;;;;;;;3.57;68.65;99828.70;1673299;83;21537;-70
2022/04/15 02:28:06;;;;;;;85.32;40.35;;;;;;;3.57;68.55;99825.16;1696019;83;21036;-70
2022/04/15 02:30:37;;;;;;;92.40;42.17;;;;;;;3.57;68.50;99825.98;1714870;83;21038;-70
2022/04/15 02:33:07;;;;;;;85.85;40.90;;;;;;;3.56;68.49;99828.44;1714628;83;21064;-71
2022/04/15 02:35:37;;;;;;;92.67;43.63;;;;;;;3.56;68.37;99820.80;1718221;81;21107;-71
2022/04/15 02:38:06;;;;;;;84.95;42.83;;;;;;;3.53;68.35;99821.59;1712859;83;21084;-70
2022/04/15 02:40:32;;;;;;;91.40;42.75;;;;;;;3.53;68.38;99820.80;1715295;83;20989;-71
2022/04/15 02:43:00;;;;;;;90.75;43.55;;;;;;;3.51;68.23;99822.41;1715441;82;21142;-70
2022/04/15 02:45:29;;;;;;;80.65;39.23;;;;;;;3.48;68.27;99810.67;1716505;82;21290;-70
2022/04/15 02:47:55;;;;;;;82.27;37.53;;;;;;;3.48;68.20;99816.13;1698227;82;21780;-71
2022/04/15 02:50:23;;;;;;;76.95;37.63;;;;;;;3.47;68.52;99811.77;1724965;82;21106;-70
2022/04/15 02:52:51;;;;;;;77.17;37.95;;;;;;;3.48;68.46;99815.33;1725788;82;20991;-71
2022/04/15 02:55:21;;;;;;;74.67;37.28;;;;;;;3.48;68.48;99815.33;1656750;85;21580;-71
2022/04/15 02:57:54;;;;;;;80.80;36.28;;;;;;;3.49;68.40;99818.31;1655684;86;21070;-73
2022/04/15 03:00:23;;;;;;;78.07;36.88;;;;;;;3.48;68.27;99815.33;1765144;79;21438;-70
2022/04/15 03:02:51;;;;;;;77.65;35.75;;;;;;;3.48;68.31;99817.48;1791634;79;21029;-71
2022/04/15 03:05:20;;;;;;;75.12;35.65;;;;;;;3.45;68.47;99811.21;1709812;82;21044;-71
2022/04/15 03:07:46;;;;;;;72.08;35.88;;;;;;;3.43;68.43;99808.48;1712667;82;21040;-70
2022/04/15 03:10:15;;;;;;;72.50;36.38;;;;;;;3.41;68.31;99807.39;1733358;82;21076;-72
2022/04/15 03:12:42;;;;;;;66.12;32.42;;;;;;;3.40;68.17;99807.09;1713488;82;21411;-70
2022/04/15 03:15:12;;;;;;;67.32;33.92;;;;;;;3.38;68.38;99807.36;1790008;79;21099;-70
2022/04/15 03:17:50;;;;;;;65.37;33.15;;;;;;;3.38;68.71;99804.64;1782109;79;21040;-70
2022/04/15 03:20:18;;;;;;;66.47;32.10;;;;;;;3.38;68.82;99806.53;1789875;79;21055;-72
2022/04/15 03:22:46;;;;;;;63.52;31.93;;;;;;;3.37;69.10;99801.66;1786379;79;20993;-72
2022/04/15 03:25:19;;;;;;;66.77;29.60;;;;;;;3.37;69.05;99802.19;1782230;79;21001;-71
2022/04/15 03:27:47;;;;;;;56.20;25.80;;;;;;;3.37;68.98;99797.56;1779557;79;21811;-70
2022/04/15 03:30:15;;;;;;;57.33;28.73;;;;;;;3.40;68.76;99807.09;1790087;78;20984;-72
2022/04/15 03:32:48;;;;;;;54.90;26.85;;;;;;;3.41;68.81;99804.11;1713284;82;21592;-70
2022/04/15 03:35:21;;;;;;;56.00;28.20;;;;;;;3.46;68.63;99805.23;1771900;78;21075;-71
2022/04/15 03:37:51;;;;;;;54.40;24.67;;;;;;;3.48;68.57;99807.15;1781992;79;21064;-72
2022/04/15 03:40:19;;;;;;;59.27;27.65;;;;;;;3.51;68.63;99813.42;1763544;79;21064;-70
2022/04/15 03:42:51;;;;;;;53.58;26.48;;;;;;;3.55;68.75;99808.27;1784424;78;20973;-71
2022/04/15 03:45:19;;;;;;;57.23;27.22;;;;;;;3.57;68.83;99810.99;1787102;79;21012;-70
2022/04/15 03:47:47;;;;;;;55.92;28.20;;;;;;;3.61;68.89;99813.48;1788575;79;21040;-71
2022/04/15 03:50:20;;;;;;;50.40;25.52;;;;;;;3.62;69.19;99808.83;1784609;79;21107;-71
2022/04/15 03:52:47;;;;;;;56.70;27.48;;;;;;;3.65;69.43;99804.23;1791209;79;20978;-71
2022/04/15 03:55:17;;;;;;;50.40;25.43;;;;;;;3.68;69.56;99809.14;1778385;79;21013;-71
2022/04/15 03:57:47;;;;;;;50.05;23.95;;;;;;;3.73;69.47;99800.16;1764617;79;21036;-70
2022/04/15 04:00:21;;;;;;;47.43;22.87;;;;;;;3.77;69.31;99804.80;1789143;79;21044;-70
2022/04/15 04:02:51;;;;;;;49.05;21.97;;;;;;;3.86;69.06;99799.66;1740448;80;21099;-71
2022/04/15 04:05:18;;;;;;;42.03;21.60;;;;;;;3.92;68.91;99800.50;1775626;79;20997;-71
2022/04/15 04:07:50;;;;;;;40.88;20.70;;;;;;;4.01;68.90;99794.78;1783717;79;20985;-71
2022/04/15 04:10:20;;;;;;;38.17;19.92;;;;;;;4.10;68.86;99802.43;1780369;79;21052;-71
2022/04/15 04:12:48;;;;;;;46.92;22.27;;;;;;;4.19;68.84;99801.36;1753520;81;21060;-71
2022/04/15 04:15:18;;;;;;;40.28;20.32;;;;;;;4.29;68.69;99800.55;1712619;82;21552;-71
2022/04/15 04:17:50;;;;;;;38.33;20.02;;;;;;;4.37;68.54;99798.11;1714422;81;21105;-71
2022/04/15 04:20:19;;;;;;;41.58;19.40;;;;;;;4.47;68.36;99797.86;1709890;82;21040;-71
2022/04/15 04:22:48;;;;;;;43.90;20.02;;;;;;;4.58;68.27;99794.56;1777656;79;21088;-71
2022/04/15 04:25:14;;;;;;;44.83;19.73;;;;;;;4.67;68.22;99795.67;1785350;79;21263;-72
2022/04/15 04:27:42;;;;;;;37.23;18.87;;;;;;;4.76;68.20;99791.81;1784837;79;21137;-70
2022/04/15 04:30:12;;;;;;;37.20;17.82;;;;;;;4.86;68.09;99789.08;1776222;79;21056;-70
2022/04/15 04:32:52;;;;;;;23.35;12.40;;;;;;;4.96;68.08;99786.91;1757167;79;21478;-72
2022/04/15 04:35:24;;;;;;;22.52;9.63;;;;;;;5.08;67.29;99784.42;1757577;80;21541;-70
2022/04/15 04:37:57;;;;;;;18.67;8.65;;;;;;;5.23;65.52;99784.92;1764164;79;21070;-70
2022/04/15 04:40:29;;;;;;;18.00;8.93;;;;;;;5.40;64.05;99776.94;1765671;79;21109;-70
2022/04/15 04:42:56;;;;;;;18.48;9.65;;;;;;;5.59;63.05;99767.58;1752228;79;21037;-71
2022/04/15 04:45:22;;;;;;;20.08;9.65;;;;;;;5.76;62.82;99771.86;1736376;80;21061;-71
2022/04/15 04:47:49;;;;;;;14.78;8.00;;;;;;;5.91;62.07;99767.68;1717092;80;21061;-71
2022/04/15 04:50:15;;;;;;;24.87;8.23;;;;;;;6.10;61.48;99767.05;1759550;79;21033;-69
2022/04/15 04:53:33;;;;;;;12.07;5.80;;;;;;;6.26;60.67;99763.64;1765018;79;21036;-73
2022/04/15 04:57:14;;;;;;;12.93;6.53;;;;;;;6.40;59.81;99770.66;1692263;83;21004;-71
2022/04/15 04:59:56;;;;;;;15.88;5.58;;;;;;;6.64;58.86;99764.98;1699803;80;32490;-70
2022/04/15 05:02:24;;;;;;;10.98;5.65;;;;;;;6.88;57.92;99769.15;1773507;80;20997;-72
2022/04/15 05:04:51;;;;;;;7.53;4.15;;;;;;;7.05;57.39;99773.36;1750986;79;21127;-72
2022/04/15 05:07:20;;;;;;;8.83;4.55;;;;;;;7.22;57.01;99773.45;1780249;78;22114;-71
2022/04/15 05:09:59;;;;;;;10.93;4.42;;;;;;;7.39;56.55;99770.24;1751156;79;21489;-72
2022/04/15 05:12:29;;;;;;;8.58;3.37;;;;;;;7.57;55.75;99770.05;1773467;78;21071;-72
2022/04/15 05:14:55;;;;;;;6.47;3.25;;;;;;;7.76;54.88;99770.63;1777416;79;21012;-72
2022/04/15 05:17:24;;;;;;;9.63;3.30;;;;;;;7.91;54.06;99770.42;1776084;78;21476;-72
2022/04/15 05:19:51;;;;;;;4.60;2.75;;;;;;;8.08;53.37;99772.37;1714582;82;21207;-70
2022/04/15 05:22:19;;;;;;;10.15;3.15;;;;;;;8.23;52.31;99769.41;1720530;82;21101;-72
2022/04/15 05:24:47;;;;;;;7.35;2.98;;;;;;;8.39;51.84;99770.54;1786605;79;21032;-72
2022/04/15 05:27:14;;;;;;;9.53;3.80;;;;;;;8.55;51.37;99771.66;1782465;79;21531;-72
2022/04/15 05:29:48;;;;;;;10.40;3.10;;;;;;;8.72;51.27;99776.60;1790748;79;21009;-73
2022/04/15 05:32:24;;;;;;;8.53;3.12;;;;;;;8.88;50.24;99773.86;1789555;79;22018;-72
2022/04/15 05:34:52;;;;;;;5.22;3.33;;;;;;;9.04;49.08;99777.68;1716390;82;21494;-72
2022/04/15 05:37:18;;;;;;;9.73;4.35;;;;;;;9.20;49.13;99774.09;1778564;79;21063;-73
2022/04/15 05:39:45;;;;;;;6.00;3.22;;;;;;;9.37;48.04;99776.80;1788791;79;21115;-72
2022/04/15 05:42:12;;;;;;;6.45;3.40;;;;;;;9.52;48.15;99778.41;1775256;79;21651;-71
2022/04/15 05:44:54;;;;;;;11.63;3.65;;;;;;;9.64;48.08;99781.23;1777560;78;21013;-72
2022/04/15 05:48:27;;;;;;;5.83;3.65;;;;;;;9.78;46.85;99779.26;1623455;87;21089;-72
2022/04/15 05:58:55;;;;;;;7.25;3.37;;;;;;;10.27;44.20;99765.53;1568869;90;21119;-72
2022/04/15 06:19:07;;;;;;;13.60;4.37;;;;;;;11.08;41.20;99754.69;1471201;96;21084;-74
2022/04/15 06:32:17;;;;;;;13.93;6.12;;;;;;;11.74;40.66;99742.05;1579826;89;21169;-73
2022/04/15 06:42:56;;;;;;;11.03;3.72;;;;;;;12.17;39.90;99734.96;1569084;90;21598;-72
2022/04/15 06:45:33;;;;;;;6.25;3.08;;;;;;;12.32;39.76;99730.66;1610005;82;21063;-71
2022/04/15 06:48:00;;;;;;;8.65;3.33;;;;;;;12.53;38.93;99730.20;1770869;79;21012;-69
2022/04/15 06:50:36;;;;;;;8.65;3.12;;;;;;;12.63;38.16;99729.04;1697882;82;21061;-72
2022/04/15 06:53:03;;;;;;;6.37;2.95;;;;;;;12.71;38.37;99733.50;1727058;81;21040;-71
2022/04/15 06:55:35;;;;;;;5.25;2.60;;;;;;;12.84;37.69;99728.90;1705516;82;21061;-71
2022/04/15 06:58:02;;;;;;;10.78;2.90;;;;;;;12.93;37.52;99728.28;1748362;80;21509;-72
2022/04/15 07:00:30;;;;;;;9.78;2.55;;;;;;;13.03;37.41;99728.52;1734350;80;21100;-71
2022/04/15 07:03:00;;;;;;;6.62;2.98;;;;;;;13.09;37.20;99723.02;1728792;80;21489;-71
2022/04/15 07:05:26;;;;;;;9.50;2.92;;;;;;;13.13;37.09;99718.47;1705762;82;21043;-74
2022/04/15 07:07:53;;;;;;;7.37;3.10;;;;;;;13.26;37.30;99715.78;1783685;79;21053;-72
2022/04/15 07:10:24;;;;;;;6.53;2.70;;;;;;;13.35;37.07;99719.32;1789987;79;21025;-72
2022/04/15 07:12:51;;;;;;;4.87;2.65;;;;;;;13.46;37.13;99721.70;1787005;78;21028;-72
2022/04/15 07:19:16;;;;;;;6.90;3.05;;;;;;;13.79;37.21;99718.81;1681306;83;21750;-71
2022/04/15 07:21:43;;;;;;;7.72;3.17;;;;;;;13.94;36.35;99723.75;1640842;85;21076;-73
2022/04/15 07:24:10;;;;;;;4.37;2.60;;;;;;;14.01;36.10;99719.05;1657129;85;21119;-73
2022/04/15 07:26:36;;;;;;;5.17;2.98;;;;;;;14.06;35.54;99708.34;1668837;85;21015;-73
2022/04/15 07:29:06;;;;;;;5.62;2.80;;;;;;;14.10;35.84;99705.95;1667270;85;21221;-72
2022/04/15 07:31:34;;;;;;;6.22;2.35;;;;;;;14.18;35.98;99711.73;1659672;85;21029;-72
2022/04/15 07:34:06;;;;;;;5.78;2.72;;;;;;;14.27;35.82;99711.09;1657687;85;21459;-72
2022/04/15 07:42:44;;;;;;;8.88;3.58;;;;;;;14.52;34.97;99708.39;1590217;88;21076;-74
2022/04/15 07:45:23;;;;;;;8.40;2.90;;;;;;;14.63;35.26;99713.50;1659965;85;21095;-72
2022/04/15 07:47:49;;;;;;;6.20;2.65;;;;;;;14.71;34.78;99705.66;1664388;84;21090;-73
2022/04/15 07:50:21;;;;;;;7.05;2.70;;;;;;;14.77;34.37;99701.53;1691360;83;21103;-74
2022/04/15 07:52:47;;;;;;;3.62;2.47;;;;;;;14.85;34.66;99703.98;1701553;83;21161;-73
2022/04/15 07:55:15;;;;;;;8.15;2.83;;;;;;;14.96;34.35;99698.81;1708743;83;21164;-72
2022/04/15 07:57:43;;;;;;;9.90;2.67;;;;;;;15.02;34.00;99691.87;1692655;83;21107;-75
2022/04/15 08:00:11;;;;;;;8.08;3.47;;;;;;;15.07;34.27;99691.64;1686202;84;21055;-75
2022/04/15 08:02:39;;;;;;;5.30;3.02;;;;;;;15.17;34.05;99690.36;1686363;84;21039;-72
2022/04/15 08:05:09;;;;;;;7.72;3.42;;;;;;;15.21;33.31;99689.09;1686235;84;21023;-72
2022/04/15 08:07:38;;;;;;;7.10;3.30;;;;;;;15.25;33.68;99682.27;1696679;83;21098;-70
2022/04/15 08:10:07;;;;;;;8.15;3.45;;;;;;;15.30;33.61;99682.03;1725603;81;21046;-70
2022/04/15 08:12:37;;;;;;;6.85;3.40;;;;;;;15.41;33.65;99680.39;1745837;81;21112;-73
2022/04/15 08:15:08;;;;;;;5.45;2.70;;;;;;;15.54;33.61;99681.17;1749004;81;21080;-71
2022/04/15 08:17:35;;;;;;;5.58;2.67;;;;;;;15.65;33.31;99677.91;1747918;81;21020;-73
2022/04/15 08:20:02;;;;;;;11.30;6.72;;;;;;;15.73;33.54;99679.73;1753995;80;21272;-71
2022/04/15 08:22:36;;;;;;;5.85;3.30;;;;;;;15.82;33.22;99679.03;1779317;80;21288;-72
2022/04/15 08:25:11;;;;;;;8.25;3.17;;;;;;;15.94;32.89;99675.98;1720569;82;21017;-72
2022/04/15 08:27:41;;;;;;;11.18;4.40;;;;;;;16.02;32.52;99670.09;1773191;79;21041;-72
2022/04/15 08:30:09;;;;;;;5.67;2.90;;;;;;;16.08;32.48;99669.23;1757186;80;21562;-73
2022/04/15 08:32:38;;;;;;;8.18;3.72;;;;;;;16.13;31.95;99666.20;1771337;79;21143;-74
2022/04/15 08:35:08;;;;;;;9.35;3.02;;;;;;;16.17;32.40;99662.36;1779920;80;21045;-73
2022/04/15 08:37:34;;;;;;;5.28;2.87;;;;;;;16.29;31.86;99666.26;1756328;80;21490;-72
2022/04/15 08:40:03;;;;;;;6.87;3.08;;;;;;;16.34;31.73;99657.66;1773845;79;22259;-72
2022/04/15 08:42:31;;;;;;;5.83;2.92;;;;;;;16.41;31.66;99656.44;1710614;82;21108;-72
2022/04/15 08:45:00;;;;;;;7.12;3.77;;;;;;;16.50;31.50;99649.89;1775068;79;21220;-75
2022/04/15 08:47:28;;;;;;;8.58;3.50;;;;;;;16.56;31.44;99651.27;1777206;79;22950;-72
2022/04/15 08:49:55;;;;;;;5.62;3.00;;;;;;;16.61;30.95;99645.44;1781640;80;21013;-73
2022/04/15 08:52:22;;;;;;;6.37;3.10;;;;;;;16.65;30.83;99641.36;1744665;81;21074;-71
2022/04/15 08:54:52;;;;;;;4.95;2.72;;;;;;;16.70;30.97;99641.06;1716156;82;20956;-72
2022/04/15 08:57:22;;;;;;;5.03;2.55;;;;;;;16.73;30.98;99632.59;1737213;82;21615;-72
2022/04/15 08:59:50;;;;;;;8.25;2.90;;;;;;;16.81;30.51;99639.13;1724796;82;20997;-73
2022/04/15 09:02:35;;;;;;;8.45;3.22;;;;;;;16.83;30.29;99636.23;1774127;80;21018;-72
2022/04/15 09:05:06;;;;;;;3.72;2.22;;;;;;;16.89;30.95;99636.17;1757432;80;21026;-70
2022/04/15 09:07:36;;;;;;;7.37;2.45;;;;;;;17.00;31.19;99634.23;1710548;83;21093;-71
2022/04/15 09:10:04;;;;;;;5.67;2.67;;;;;;;17.11;30.87;99624.18;1768983;79;21722;-73
2022/04/15 09:12:35;;;;;;;7.53;2.87;;;;;;;17.19;30.61;99623.78;1773243;79;21618;-72
2022/04/15 09:15:14;;;;;;;9.53;2.67;;;;;;;17.27;30.59;99626.13;1768928;79;21506;-71
2022/04/15 09:17:49;;;;;;;4.92;2.62;;;;;;;17.35;30.25;99620.15;1775691;79;21123;-72
2022/04/15 09:20:16;;;;;;;6.62;3.12;;;;;;;17.39;30.21;99618.23;1761287;80;21611;-73
2022/04/15 09:22:44;;;;;;;4.55;3.00;;;;;;;17.49;30.48;99607.91;1758491;79;21010;-71
2022/04/15 09:25:14;;;;;;;5.40;3.05;;;;;;;17.55;29.80;99610.41;1788435;79;21048;-72
2022/04/15 09:27:41;;;;;;;8.93;3.85;;;;;;;17.56;29.17;99608.65;1776251;79;21001;-71
2022/04/15 09:30:10;;;;;;;10.53;4.70;;;;;;;17.56;29.29;99603.08;1775838;79;21099;-71
2022/04/15 09:32:40;;;;;;;5.42;2.98;;;;;;;17.61;29.37;99599.19;1774147;79;21082;-71
2022/04/15 09:35:08;;;;;;;6.03;3.12;;;;;;;17.71;29.56;99604.17;1747093;79;21123;-71
2022/04/15 09:37:42;;;;;;;7.58;4.60;;;;;;;17.79;29.43;99597.36;1774487;79;21005;-71
2022/04/15 09:40:16;;;;;;;4.50;2.95;;;;;;;17.83;28.82;99592.65;1771207;79;22180;-74
2022/04/15 09:42:53;;;;;;;6.70;3.25;;;;;;;17.85;29.00;99579.16;1772403;79;21008;-71
2022/04/15 09:45:31;;;;;;;7.00;2.75;;;;;;;17.91;29.16;99586.06;1771068;79;21032;-72
2022/04/15 09:48:05;;;;;;;12.03;5.08;;;;;;;18.00;29.58;99574.08;1773199;79;21072;-71
2022/04/15 09:50:42;;;;;;;8.33;3.10;;;;;;;18.13;28.86;99569.77;1698132;82;21041;-73
2022/04/15 09:53:14;;;;;;;5.75;3.20;;;;;;;18.15;28.45;99565.21;1707784;82;21056;-71
2022/04/15 09:55:50;;;;;;;9.30;3.65;;;;;;;18.06;28.68;99558.45;1714413;82;21528;-73
2022/04/15 09:58:21;;;;;;;5.87;3.52;;;;;;;18.05;28.52;99552.66;1714356;82;21052;-71
2022/04/15 10:00:52;;;;;;;8.55;4.22;;;;;;;18.08;28.72;99548.52;1704567;82;21461;-71
2022/04/15 10:03:25;;;;;;;4.10;2.92;;;;;;;18.13;29.43;99538.49;1709688;82;21131;-71
2022/04/15 11:03:32;;;;;;;5.62;3.00;;;;;;;19.30;28.12;99497.55;1771387;79;20985;-72
2022/04/15 11:06:04;;;;;;;8.10;2.80;;;;;;;19.40;29.17;99480.13;1800457;77;20890;-72
2022/04/15 11:08:33;;;;;;;8.23;3.87;;;;;;;19.56;28.39;99483.29;1786123;79;20950;-74
2022/04/15 11:11:03;;;;;;;7.08;3.77;;;;;;;19.69;27.66;99488.81;1757635;79;21000;-73
2022/04/15 11:13:48;;;;;;;6.65;3.87;;;;;;;19.74;27.08;99479.89;1798898;79;20929;-76
2022/04/15 11:16:16;;;;;;;;;;;;;;;19.67;26.82;99480.00;1799139;79;21013;-74
2022/04/15 11:18:53;;;;;;;10.23;3.77;;;;;;;19.65;27.10;99467.00;1791307;79;20091;-74
2022/04/15 11:21:26;;;;;;;7.28;3.60;;;;;;;19.68;27.06;99462.07;1777126;79;20992;-75
2022/04/15 11:24:00;;;;;;;9.18;4.08;;;;;;;19.71;27.37;99456.29;1757853;79;21009;-74
2022/04/15 11:26:29;;;;;;;8.73;3.02;;;;;;;19.79;27.64;99456.56;1783895;79;20996;-70
2022/04/15 11:28:59;;;;;;;9.10;3.47;;;;;;;19.83;27.13;99460.21;1776193;78;21055;-73
2022/04/15 11:31:33;;;;;;;6.00;3.22;;;;;;;19.83;26.90;99447.63;1772814;79;21134;-73
2022/04/15 11:34:15;;;;;;;4.10;2.62;;;;;;;19.89;26.66;99453.66;1786345;78;21071;-73
2022/04/15 11:36:48;;;;;;;7.25;3.62;;;;;;;19.86;27.04;99455.05;1784843;79;20981;-72
2022/04/15 11:39:21;;;;;;;9.23;3.87;;;;;;;19.89;27.30;99451.47;1777494;78;20993;-72
2022/04/15 11:41:52;;;;;;;6.67;3.08;;;;;;;19.90;27.01;99448.30;1782474;78;21024;-72
2022/04/15 11:44:19;;;;;;;7.10;3.22;;;;;;;19.93;27.02;99439.13;1776684;78;21226;-72
2022/04/15 11:46:51;;;;;;;8.30;3.08;;;;;;;19.99;26.86;99435.39;1776207;79;21111;-72
2022/04/15 11:49:26;;;;;;;9.05;4.50;;;;;;;20.00;26.50;99435.59;1775136;79;21028;-71
2022/04/15 11:51:57;;;;;;;9.63;4.12;;;;;;;20.00;26.20;99431.98;1765241;80;21105;-72
2022/04/15 11:54:30;;;;;;;9.15;3.35;;;;;;;19.91;26.33;99430.31;1790149;80;20989;-73
2022/04/15 11:56:58;;;;;;;8.55;3.83;;;;;;;19.91;26.28;99430.91;1789816;80;21174;-74
2022/04/15 11:59:25;;;;;;;11.05;3.37;;;;;;;19.88;26.20;99424.69;1786463;80;21496;-72
2022/04/15 12:01:57;;;;;;;10.18;5.95;;;;;;;19.85;26.84;99419.30;1744537;80;21044;-74
2022/04/15 12:04:25;;;;;;;6.85;3.70;;;;;;;19.93;26.90;99425.15;1708054;81;21122;-74
2022/04/15 12:06:54;;;;;;;9.65;3.90;;;;;;;20.07;26.50;99419.49;1741172;81;21002;-72
2022/04/15 12:09:25;;;;;;;9.68;4.33;;;;;;;20.14;26.54;99416.76;1762776;79;21006;-73
2022/04/15 12:11:52;;;;;;;6.80;3.75;;;;;;;20.17;26.25;99413.77;1762669;79;21590;-75
2022/04/15 12:14:19;;;;;;;7.17;4.10;;;;;;;20.20;26.61;99412.98;1737760;80;21045;-75
2022/04/15 12:16:48;;;;;;;6.05;3.33;;;;;;;20.32;26.56;99411.86;1709146;82;21000;-74
2022/04/15 12:19:21;;;;;;;7.85;3.22;;;;;;;20.41;26.17;99401.15;1743156;80;21052;-75
2022/04/15 12:21:51;;;;;;;12.05;3.50;;;;;;;20.45;26.25;99394.77;1727147;81;21235;-74
2022/04/15 12:24:25;;;;;;;7.95;3.35;;;;;;;20.51;26.07;99391.79;1709327;82;21289;-73
2022/04/15 12:26:53;;;;;;;6.05;3.40;;;;;;;20.54;25.30;99395.20;1752158;80;21007;-74
2022/04/15 12:32:34;;;;;;;6.35;3.50;;;;;;;20.48;26.11;99384.19;1715966;80;21642;-71
2022/04/15 12:35:11;;;;;;;6.08;3.17;;;;;;;20.62;25.87;99384.27;1746889;80;21199;-73
2022/04/15 12:37:49;;;;;;;7.33;3.60;;;;;;;20.72;25.36;99380.50;1755494;79;21544;-72
2022/04/15 12:40:22;;;;;;;10.28;3.40;;;;;;;20.77;25.52;99371.73;1741507;80;20932;-71
2022/04/15 12:42:49;;;;;;;6.65;3.20;;;;;;;20.82;25.10;99376.95;1739557;80;21107;-72
2022/04/15 12:45:19;;;;;;;7.97;3.30;;;;;;;20.79;24.87;99371.55;1744146;80;21031;-71
2022/04/15 12:48:03;;;;;;;7.47;3.20;;;;;;;20.80;25.03;99369.53;1744896;80;21419;-74
2022/04/15 12:50:33;;;;;;;;;;;;;;;20.79;24.92;99365.14;1743258;80;21099;-73
2022/04/15 12:53:00;;;;;;;9.10;3.92;;;;;;;20.77;24.73;99372.54;1739579;82;20471;-72
2022/04/15 12:55:34;;;;;;;13.28;4.42;;;;;;;20.71;24.99;99373.31;1742142;80;21560;-75
2022/04/15 12:58:17;;;;;;;6.80;3.95;;;;;;;20.66;25.09;99358.48;1741986;80;21528;-74
2022/04/15 13:00:48;;;;;;;10.85;4.58;;;;;;;20.71;24.93;99359.31;1727134;80;21300;-73
2022/04/15 13:03:17;;;;;;;7.90;3.37;;;;;;;20.72;25.05;99360.91;1770368;79;21086;-73
2022/04/15 13:05:55;;;;;;;7.10;3.17;;;;;;;20.80;25.32;99347.14;1773278;80;20924;-74
2022/04/15 13:08:24;;;;;;;9.20;4.72;;;;;;;20.85;25.25;99339.77;1767114;80;21055;-74
2022/04/15 13:10:52;;;;;;;8.68;4.20;;;;;;;20.92;25.26;99345.98;1774088;80;21104;-74
2022/04/15 13:13:21;;;;;;;6.10;3.50;;;;;;;20.98;24.85;99336.64;1771198;80;20983;-77
2022/04/15 13:15:49;;;;;;;5.83;3.17;;;;;;;20.98;25.12;99335.23;1762843;80;21015;-70
2022/04/15 13:18:18;;;;;;;6.80;3.17;;;;;;;21.04;25.37;99328.85;1787964;78;21000;-72
2022/04/15 13:20:48;;;;;;;6.33;3.33;;;;;;;21.13;25.63;99328.47;1793818;79;20957;-70
2022/04/15 13:23:16;;;;;;;7.40;3.30;;;;;;;21.19;24.90;99332.28;1765300;79;20953;-70
2022/04/15 13:25:47;;;;;;;6.10;3.20;;;;;;;21.10;24.88;99333.45;1758286;80;20913;-70
2022/04/15 13:28:16;;;;;;;11.10;3.05;;;;;;;21.03;24.88;99322.25;1751322;80;21032;-71
2022/04/15 13:34:34;;;;;;;9.53;3.42;;;;;;;20.96;24.98;99316.03;1718734;82;21081;-68
2022/04/15 13:37:06;;;;;;;10.08;2.77;;;;;;;20.95;25.16;99310.84;1725159;80;21527;-71
2022/04/15 13:39:36;;;;;;;6.25;3.30;;;;;;;21.01;25.08;99312.84;1767280;80;21496;-70
2022/04/15 13:42:08;;;;;;;6.22;3.17;;;;;;;21.03;24.50;99311.05;1758057;80;20973;-72
2022/04/15 13:44:37;;;;;;;7.25;2.98;;;;;;;20.96;24.62;99295.62;1729654;80;21017;-71
2022/04/15 13:47:04;;;;;;;7.53;3.72;;;;;;;20.88;24.69;99293.39;1780543;80;20897;-73
2022/04/15 13:49:36;;;;;;;13.30;4.00;;;;;;;20.82;24.71;99295.77;1776774;80;20904;-70